Time;durP1;ratioP1;P1;durP2;ratioP2;P2;SDS_P1;SDS_P2;PMS_P1;PMS_P2;Temp;Humidity;BMP_temperature;BMP_pressure;BME280_temperature;BME280_humidity;BME280_pressure;Samples;Min_cycle;Max_cycle;Signal;HPM_P1;HPM_P2
2021/01/05 00:00:33;;;;;;;10.57;8.35;;;27.30;68.20;;;;;;4962647;28;20237;-49
2021/01/05 00:03:03;;;;;;;10.40;8.02;;;27.30;68.10;;;;;;4958029;28;20283;-49
2021/01/05 00:05:34;;;;;;;8.80;7.95;;;27.30;67.40;;;;;;4963276;28;20239;-49
2021/01/05 00:08:05;;;;;;;9.45;8.25;;;27.30;67.50;;;;;;4964177;28;20622;-51
2021/01/05 00:10:37;;;;;;;13.30;9.90;;;27.30;67.60;;;;;;4968268;28;20243;-54
2021/01/05 00:13:07;;;;;;;11.50;9.05;;;27.30;67.80;;;;;;4962094;28;20233;-50
2021/01/05 00:15:38;;;;;;;12.38;9.38;;;27.40;67.80;;;;;;4966110;28;20224;-52
2021/01/05 00:18:08;;;;;;;11.65;9.30;;;27.40;67.80;;;;;;4960784;28;20298;-49
2021/01/05 00:20:40;;;;;;;14.88;10.52;;;27.40;67.70;;;;;;4965849;28;20248;-51
2021/01/05 00:23:15;;;;;;;10.90;9.80;;;27.40;67.90;;;;;;4961388;28;20309;-53
2021/01/05 00:25:47;;;;;;;11.40;10.20;;;27.40;68.00;;;;;;4962246;28;20260;-50
2021/01/05 00:28:17;;;;;;;11.82;10.13;;;27.40;68.20;;;;;;4966293;28;20627;-53
2021/01/05 00:30:48;;;;;;;12.05;10.50;;;27.40;68.40;;;;;;4965490;28;20233;-51
2021/01/05 00:33:18;;;;;;;10.82;9.73;;;27.40;68.50;;;;;;4970723;28;20225;-51
2021/01/05 00:35:50;;;;;;;12.25;10.80;;;27.40;68.60;;;;;;4959526;28;20237;-51
2021/01/05 00:38:20;;;;;;;12.85;11.60;;;27.40;68.50;;;;;;4968508;28;20272;-50
2021/01/05 00:40:52;;;;;;;17.77;13.43;;;27.40;68.50;;;;;;4999689;28;20234;-51
2021/01/05 00:43:22;;;;;;;13.57;12.18;;;27.40;68.70;;;;;;4964272;28;20237;-51
2021/01/05 00:45:53;;;;;;;13.13;11.48;;;27.40;68.50;;;;;;4962218;28;20712;-51
2021/01/05 00:48:23;;;;;;;16.30;12.65;;;27.40;68.70;;;;;;4957469;28;20294;-55
2021/01/05 00:50:54;;;;;;;13.98;11.88;;;27.40;68.60;;;;;;4970584;28;20290;-50
2021/01/05 00:53:25;;;;;;;13.30;11.40;;;27.40;68.70;;;;;;4964885;28;20228;-49
2021/01/05 00:55:56;;;;;;;13.70;11.45;;;27.50;68.80;;;;;;4965909;28;20724;-49
2021/01/05 00:58:27;;;;;;;12.75;11.40;;;27.50;68.70;;;;;;4968504;28;20247;-52
2021/01/05 01:00:58;;;;;;;14.65;13.10;;;27.50;68.80;;;;;;4972318;28;20763;-52
2021/01/05 01:03:29;;;;;;;13.95;12.50;;;27.60;68.50;;;;;;4961612;28;20602;-51
2021/01/05 01:05:59;;;;;;;13.57;12.27;;;27.60;68.30;;;;;;4966024;28;20282;-50
2021/01/05 01:08:30;;;;;;;16.40;13.93;;;27.70;68.00;;;;;;4964881;28;20764;-53
2021/01/05 01:11:02;;;;;;;14.93;13.32;;;27.70;67.80;;;;;;4965335;28;20252;-49
2021/01/05 01:13:33;;;;;;;15.52;12.73;;;27.80;67.70;;;;;;4961511;28;20260;-50
2021/01/05 01:16:03;;;;;;;14.40;13.00;;;27.80;67.60;;;;;;4961696;28;20236;-50
2021/01/05 01:18:34;;;;;;;13.27;11.98;;;27.90;67.60;;;;;;4979273;28;20717;-49
2021/01/05 01:21:05;;;;;;;14.15;12.68;;;28.00;67.50;;;;;;4965782;28;20229;-51
2021/01/05 01:23:35;;;;;;;14.43;12.93;;;28.00;67.00;;;;;;4964733;28;20239;-49
2021/01/05 01:26:07;;;;;;;15.43;13.73;;;28.10;66.80;;;;;;4965972;28;20268;-52
2021/01/05 01:28:38;;;;;;;13.68;12.38;;;28.10;66.60;;;;;;4967551;28;20251;-50
2021/01/05 01:31:11;;;;;;;14.55;12.90;;;28.20;66.70;;;;;;4961471;28;20584;-50
2021/01/05 01:33:42;;;;;;;13.40;12.07;;;28.30;66.50;;;;;;4957497;28;20229;-49
2021/01/05 01:36:13;;;;;;;13.07;11.73;;;28.30;66.60;;;;;;4960723;28;20725;-50
2021/01/05 01:38:43;;;;;;;15.52;11.48;;;28.40;66.60;;;;;;4962685;28;20631;-50
2021/01/05 01:41:15;;;;;;;14.15;12.45;;;28.40;66.30;;;;;;4957523;28;20237;-51
2021/01/05 01:43:49;;;;;;;15.60;12.98;;;28.50;66.10;;;;;;4966994;28;20224;-49
2021/01/05 01:46:19;;;;;;;18.08;14.55;;;28.50;65.70;;;;;;4958766;28;20290;-50
2021/01/05 01:48:50;;;;;;;16.08;14.43;;;28.60;65.20;;;;;;4955752;28;20235;-50
2021/01/05 01:51:20;;;;;;;15.73;14.10;;;28.70;65.10;;;;;;4960946;28;20262;-49
2021/01/05 01:54:11;;;;;;;18.52;14.90;;;28.70;65.70;;;;;;4958997;28;20282;-49
2021/01/05 01:57:06;;;;;;;16.30;14.20;;;28.80;64.40;;;;;;5036833;28;20238;-49
2021/01/05 01:59:53;;;;;;;16.42;13.50;;;28.80;64.20;;;;;;4996973;28;20886;-53
2021/01/05 02:02:32;;;;;;;16.67;13.23;;;28.90;64.30;;;;;;4951174;28;20319;-52
2021/01/05 02:05:08;;;;;;;14.45;12.93;;;28.90;64.50;;;;;;4896549;29;20812;-52
2021/01/05 02:07:47;;;;;;;15.27;13.32;;;29.00;64.60;;;;;;4900083;29;20237;-51
2021/01/05 02:10:41;;;;;;;13.93;12.57;;;29.00;64.00;;;;;;4900819;29;20246;-56
2021/01/05 02:13:38;;;;;;;12.55;11.35;;;29.10;63.80;;;;;;4903108;29;20238;-50
2021/01/05 02:16:21;;;;;;;12.70;11.50;;;29.10;63.60;;;;;;4883540;29;20635;-53
2021/01/05 02:18:52;;;;;;;12.70;11.40;;;29.20;63.00;;;;;;4923255;29;20238;-50
2021/01/05 02:21:25;;;;;;;14.27;11.98;;;29.20;63.40;;;;;;4944677;28;20228;-50
2021/01/05 02:24:06;;;;;;;13.05;11.75;;;29.20;63.10;;;;;;4962975;28;20696;-50
2021/01/05 02:26:41;;;;;;;13.02;11.65;;;29.30;62.70;;;;;;4976850;28;20242;-55
2021/01/05 02:29:12;;;;;;;13.07;10.60;;;29.40;62.80;;;;;;4951147;28;20675;-53
2021/01/05 02:31:47;;;;;;;11.77;10.32;;;29.40;62.80;;;;;;4883720;28;20427;-52
2021/01/05 02:34:45;;;;;;;10.98;9.88;;;29.50;63.10;;;;;;4878701;28;20745;-50
2021/01/05 02:37:25;;;;;;;11.55;10.35;;;29.50;62.50;;;;;;4863506;28;20251;-50
2021/01/05 02:40:39;;;;;;;10.52;9.43;;;29.60;62.30;;;;;;4880574;28;20249;-52
2021/01/05 02:43:35;;;;;;;10.40;9.27;;;29.70;61.10;;;;;;4882208;28;20231;-51
2021/01/05 02:46:26;;;;;;;10.13;8.90;;;29.80;61.30;;;;;;4883043;28;20263;-50
2021/01/05 02:49:08;;;;;;;10.40;9.27;;;29.80;61.10;;;;;;4883179;29;20325;-51
2021/01/05 02:51:57;;;;;;;13.27;9.38;;;29.90;60.90;;;;;;4881264;28;20250;-54
2021/01/05 02:55:06;;;;;;;10.05;9.13;;;30.00;60.60;;;;;;4905577;28;20607;-55
2021/01/05 02:57:52;;;;;;;11.35;9.48;;;30.10;60.30;;;;;;4923350;28;20226;-52
2021/01/05 03:01:01;;;;;;;13.05;9.80;;;30.10;59.80;;;;;;4882646;28;20236;-54
2021/01/05 03:03:40;;;;;;;9.93;8.90;;;30.20;58.80;;;;;;4934652;28;21037;-51
2021/01/05 03:06:31;;;;;;;11.32;9.00;;;30.30;60.10;;;;;;4885859;29;20719;-49
2021/01/05 03:09:22;;;;;;;9.60;8.70;;;30.30;59.80;;;;;;4888548;29;20506;-55
2021/01/05 03:12:11;;;;;;;10.48;9.48;;;30.40;59.50;;;;;;4887822;29;20239;-52
2021/01/05 03:14:48;;;;;;;9.05;8.10;;;30.50;59.20;;;;;;4886650;29;20247;-53
2021/01/05 03:17:22;;;;;;;9.90;8.90;;;30.50;59.00;;;;;;4853174;29;20331;-51
2021/01/05 03:19:59;;;;;;;10.63;8.68;;;30.50;59.10;;;;;;4899818;29;20384;-51
2021/01/05 03:22:30;;;;;;;15.13;9.40;;;30.60;58.90;;;;;;4921762;29;20259;-51
2021/01/05 03:25:01;;;;;;;10.35;9.35;;;30.70;59.20;;;;;;4957761;28;20711;-52
2021/01/05 03:27:32;;;;;;;10.25;9.27;;;30.80;58.90;;;;;;4951170;28;20234;-50
2021/01/05 03:30:06;;;;;;;8.23;7.32;;;30.80;58.40;;;;;;4966900;28;20711;-51
2021/01/05 03:32:38;;;;;;;6.60;6.00;;;30.90;57.50;;;;;;4967866;28;20947;-50
2021/01/05 03:35:10;;;;;;;5.70;5.20;;;31.00;57.40;;;;;;4971145;28;20232;-52
2021/01/05 03:37:40;;;;;;;6.43;5.82;;;31.10;57.30;;;;;;4966876;28;21028;-49
2021/01/05 03:40:13;;;;;;;6.32;5.72;;;31.20;56.70;;;;;;4961998;28;20269;-50
2021/01/05 03:42:44;;;;;;;6.60;6.00;;;31.20;56.50;;;;;;4967431;28;20236;-52
2021/01/05 03:45:18;;;;;;;6.55;5.80;;;31.40;56.30;;;;;;4968495;28;20306;-50
2021/01/05 03:47:50;;;;;;;6.05;5.53;;;31.40;56.00;;;;;;4981238;28;20814;-49
2021/01/05 03:50:20;;;;;;;6.03;5.50;;;31.50;56.40;;;;;;5018070;28;20672;-50
2021/01/05 03:52:51;;;;;;;5.80;5.30;;;31.70;56.40;;;;;;5021058;28;20246;-49
2021/01/05 03:55:21;;;;;;;5.82;5.32;;;31.80;56.00;;;;;;5019648;28;20230;-52
2021/01/05 03:57:52;;;;;;;6.25;5.32;;;31.90;55.70;;;;;;5021002;28;20250;-55
2021/01/05 04:00:26;;;;;;;6.00;5.45;;;32.00;55.60;;;;;;5009057;28;20575;-52
2021/01/05 04:02:58;;;;;;;5.55;5.05;;;32.20;55.10;;;;;;4962370;28;20227;-53
2021/01/05 04:05:30;;;;;;;7.18;4.90;;;32.30;54.20;;;;;;4961951;28;20271;-52
2021/01/05 04:08:00;;;;;;;5.53;5.03;;;32.40;54.30;;;;;;4965245;28;20671;-50
2021/01/05 04:10:31;;;;;;;5.57;5.07;;;32.50;53.90;;;;;;4961767;28;20264;-51
2021/01/05 04:13:01;;;;;;;5.75;5.15;;;32.60;53.90;;;;;;4961600;28;20680;-51
2021/01/05 04:15:32;;;;;;;5.97;5.45;;;32.60;53.80;;;;;;4958498;28;20256;-54
2021/01/05 04:18:04;;;;;;;6.40;5.85;;;32.70;53.10;;;;;;4958983;28;20246;-53
2021/01/05 04:20:34;;;;;;;7.18;6.57;;;32.80;52.90;;;;;;4964775;28;20232;-53
2021/01/05 04:23:05;;;;;;;6.28;5.68;;;32.90;52.20;;;;;;4958950;28;20232;-51
2021/01/05 04:25:36;;;;;;;7.10;5.25;;;32.90;52.60;;;;;;4990527;28;20230;-54
2021/01/05 04:28:07;;;;;;;6.38;5.75;;;32.90;52.90;;;;;;4957688;28;20225;-49
2021/01/05 04:30:37;;;;;;;7.75;6.45;;;33.00;52.90;;;;;;4960978;28;20233;-50
2021/01/05 04:33:10;;;;;;;6.70;6.07;;;33.10;52.80;;;;;;4957162;28;20320;-50
2021/01/05 04:35:41;;;;;;;6.97;5.65;;;33.20;52.20;;;;;;4963732;28;20229;-50
2021/01/05 04:38:11;;;;;;;8.02;6.50;;;33.20;52.50;;;;;;4958704;28;20233;-53
2021/01/05 04:40:43;;;;;;;7.85;5.82;;;33.20;51.90;;;;;;4961893;28;20234;-51
2021/01/05 04:43:45;;;;;;;8.07;7.28;;;33.30;52.20;;;;;;4960571;28;20243;-50
2021/01/05 04:46:37;;;;;;;7.47;6.85;;;33.30;52.20;;;;;;4980583;28;20653;-49
2021/01/05 04:49:21;;;;;;;20.42;15.93;;;33.40;51.60;;;;;;4927751;28;20826;-50
2021/01/05 04:51:53;;;;;;;20.88;17.02;;;33.40;51.40;;;;;;4926068;28;20238;-52
2021/01/05 04:54:28;;;;;;;12.57;10.38;;;33.40;51.80;;;;;;4924155;28;20700;-51
2021/01/05 04:57:09;;;;;;;19.15;16.83;;;33.50;51.70;;;;;;4925718;28;20238;-50
2021/01/05 04:59:40;;;;;;;9.70;8.80;;;33.50;51.90;;;;;;4925418;28;20234;-53
2021/01/05 05:02:16;;;;;;;12.52;11.30;;;33.50;51.70;;;;;;4907371;28;20327;-50
2021/01/05 05:04:52;;;;;;;28.60;24.58;;;33.50;51.60;;;;;;4884564;28;20285;-50
2021/01/05 05:07:29;;;;;;;10.63;9.45;;;33.50;51.90;;;;;;4887646;28;20239;-50
2021/01/05 05:10:01;;;;;;;8.60;7.80;;;33.50;51.40;;;;;;4908316;28;20238;-49
2021/01/05 05:12:41;;;;;;;11.75;10.57;;;33.60;51.30;;;;;;4895336;28;20316;-53
2021/01/05 05:15:42;;;;;;;10.55;9.35;;;33.60;51.30;;;;;;4946311;28;20350;-49
2021/01/05 05:18:33;;;;;;;10.27;9.20;;;33.60;51.40;;;;;;4946708;28;20250;-54
2021/01/05 05:21:18;;;;;;;7.95;7.15;;;33.70;51.30;;;;;;4950448;28;20284;-52
2021/01/05 05:24:05;;;;;;;7.35;6.18;;;33.70;51.00;;;;;;4872317;28;20332;-51
2021/01/05 05:26:40;;;;;;;6.90;6.18;;;33.70;50.80;;;;;;4903136;29;20255;-51
2021/01/05 05:29:17;;;;;;;7.85;7.05;;;33.80;50.50;;;;;;4894158;29;20239;-51
2021/01/05 05:31:48;;;;;;;7.97;7.28;;;33.80;50.60;;;;;;4865493;29;20700;-50
2021/01/05 05:34:24;;;;;;;7.30;6.60;;;33.80;50.50;;;;;;4877321;29;20259;-54
2021/01/05 05:37:13;;;;;;;8.18;7.40;;;33.80;50.40;;;;;;4851363;29;20329;-51
2021/01/05 05:40:19;;;;;;;8.70;6.05;;;33.90;50.20;;;;;;4769079;29;20296;-52
2021/01/05 05:43:00;;;;;;;8.15;6.82;;;33.90;50.20;;;;;;4774448;29;20304;-50
2021/01/05 05:45:31;;;;;;;13.75;6.30;;;33.90;49.90;;;;;;4757229;30;20319;-52
2021/01/05 05:48:03;;;;;;;6.28;5.68;;;33.90;49.90;;;;;;4779519;29;20348;-53
2021/01/05 05:50:39;;;;;;;6.15;5.65;;;33.90;50.00;;;;;;4814029;29;20242;-51
2021/01/05 05:53:13;;;;;;;5.85;5.25;;;34.00;50.00;;;;;;4759359;30;21012;-54
2021/01/05 05:55:47;;;;;;;6.05;5.15;;;34.00;50.10;;;;;;4760780;30;20243;-52
2021/01/05 05:58:20;;;;;;;7.95;7.15;;;34.00;50.10;;;;;;4758952;30;20436;-53
2021/01/05 06:00:52;;;;;;;7.25;6.55;;;34.10;50.20;;;;;;4761924;30;20333;-54
2021/01/05 06:03:23;;;;;;;6.97;6.38;;;34.20;50.50;;;;;;4805945;29;20244;-52
2021/01/05 06:05:54;;;;;;;6.07;5.47;;;34.20;50.50;;;;;;4909317;29;20384;-54
2021/01/05 06:08:26;;;;;;;6.30;5.70;;;34.20;50.40;;;;;;4967634;28;20632;-50
2021/01/05 06:10:57;;;;;;;6.05;5.47;;;34.30;49.90;;;;;;5017723;28;20750;-51
2021/01/05 06:13:28;;;;;;;5.93;5.15;;;34.40;49.90;;;;;;5014610;28;20368;-52
2021/01/05 06:15:59;;;;;;;5.82;5.15;;;34.40;49.90;;;;;;5016280;28;20235;-49
2021/01/05 06:18:30;;;;;;;6.30;5.80;;;34.40;49.90;;;;;;4989605;28;20233;-55
2021/01/05 06:21:00;;;;;;;7.75;6.28;;;34.40;49.70;;;;;;4959009;28;20236;-51
2021/01/05 06:23:33;;;;;;;6.45;5.85;;;34.40;49.40;;;;;;4971824;28;20320;-55
2021/01/05 06:26:03;;;;;;;6.65;6.07;;;34.40;49.40;;;;;;4959170;28;20229;-55
2021/01/05 06:28:34;;;;;;;6.28;5.75;;;34.40;49.40;;;;;;4965961;28;20220;-51
2021/01/05 06:31:04;;;;;;;6.65;5.72;;;34.40;49.60;;;;;;4955523;28;20232;-55
2021/01/05 06:33:34;;;;;;;7.68;5.93;;;34.40;49.70;;;;;;4963781;28;20315;-51
2021/01/05 06:36:06;;;;;;;6.53;5.93;;;34.40;49.70;;;;;;4962707;28;20704;-53
2021/01/05 06:38:37;;;;;;;6.57;5.97;;;34.50;49.90;;;;;;4956132;28;20315;-50
2021/01/05 06:41:08;;;;;;;6.03;5.53;;;34.50;49.90;;;;;;4967231;28;20310;-51
2021/01/05 06:43:39;;;;;;;8.45;6.05;;;34.50;49.70;;;;;;4980852;28;20305;-50
2021/01/05 06:46:11;;;;;;;6.22;5.63;;;34.50;49.80;;;;;;4976932;28;20293;-54
2021/01/05 06:48:42;;;;;;;6.45;5.93;;;34.50;49.70;;;;;;4996028;28;20233;-50
2021/01/05 06:51:12;;;;;;;6.40;5.80;;;34.60;49.70;;;;;;4969562;28;20290;-53
2021/01/05 06:53:44;;;;;;;6.15;5.47;;;34.60;49.80;;;;;;4963394;28;20273;-52
2021/01/05 06:56:15;;;;;;;6.85;6.25;;;34.60;49.90;;;;;;4968817;28;20267;-53
2021/01/05 06:58:51;;;;;;;6.68;5.50;;;34.70;50.20;;;;;;4965518;28;20364;-51
2021/01/05 07:01:22;;;;;;;6.03;5.63;;;34.70;50.50;;;;;;4964184;28;20283;-54
2021/01/05 07:03:55;;;;;;;6.72;5.97;;;34.70;50.00;;;;;;4963728;28;20302;-53
2021/01/05 07:06:26;;;;;;;6.88;6.28;;;34.70;49.80;;;;;;4963590;28;20233;-51
2021/01/05 07:08:59;;;;;;;7.05;6.47;;;34.70;49.50;;;;;;4965827;28;20278;-51
2021/01/05 07:11:30;;;;;;;8.18;7.47;;;34.70;49.30;;;;;;4967377;28;20241;-55
2021/01/05 07:14:00;;;;;;;9.52;8.63;;;34.70;49.30;;;;;;4959391;28;20230;-53
2021/01/05 07:16:31;;;;;;;8.73;7.93;;;34.70;49.20;;;;;;4967899;28;20267;-49
2021/01/05 07:19:01;;;;;;;7.75;7.05;;;34.70;49.30;;;;;;4995021;28;20286;-50
2021/01/05 07:21:32;;;;;;;7.25;6.55;;;34.60;49.30;;;;;;4962899;28;20237;-50
2021/01/05 07:24:04;;;;;;;8.45;7.65;;;34.60;49.60;;;;;;4968986;28;20711;-50
2021/01/05 07:26:35;;;;;;;8.93;8.00;;;34.60;49.40;;;;;;5002360;28;20228;-51
2021/01/05 07:29:06;;;;;;;10.05;8.93;;;34.60;49.30;;;;;;4964237;28;20236;-49
2021/01/05 07:31:36;;;;;;;14.90;12.18;;;34.50;50.00;;;;;;5009039;28;20264;-51
2021/01/05 07:34:07;;;;;;;10.98;9.98;;;34.50;51.50;;;;;;4957671;28;20697;-52
2021/01/05 07:36:39;;;;;;;10.95;9.80;;;34.40;51.50;;;;;;4965993;28;20240;-51
2021/01/05 07:39:20;;;;;;;10.13;9.13;;;34.40;51.60;;;;;;4962815;28;20665;-49
2021/01/05 07:41:51;;;;;;;14.90;12.23;;;34.40;52.10;;;;;;4972710;28;20244;-52
2021/01/05 07:44:23;;;;;;;18.90;12.60;;;34.30;52.40;;;;;;4991415;28;20246;-52
2021/01/05 07:46:53;;;;;;;11.80;10.77;;;34.20;52.60;;;;;;5008651;28;20321;-50
2021/01/05 07:49:24;;;;;;;12.75;11.35;;;34.20;52.90;;;;;;5003663;28;20231;-51
2021/01/05 07:51:54;;;;;;;12.77;11.45;;;34.20;53.20;;;;;;5000732;28;20236;-54
2021/01/05 07:54:26;;;;;;;11.57;10.48;;;34.10;53.20;;;;;;5009116;28;20246;-52
2021/01/05 07:56:57;;;;;;;14.38;13.00;;;34.10;53.50;;;;;;4997305;28;20247;-50
2021/01/05 07:59:31;;;;;;;13.52;12.32;;;34.10;53.80;;;;;;5006924;28;20246;-53
2021/01/05 08:02:01;;;;;;;12.93;11.65;;;33.90;53.90;;;;;;5006664;28;20231;-57
2021/01/05 08:04:32;;;;;;;12.57;11.43;;;33.90;54.20;;;;;;4964756;28;20252;-51
2021/01/05 08:07:03;;;;;;;13.85;12.45;;;33.80;54.40;;;;;;4960978;28;20233;-50
2021/01/05 08:09:37;;;;;;;13.07;11.63;;;33.80;54.50;;;;;;4962363;28;20237;-52
2021/01/05 08:12:12;;;;;;;12.10;10.68;;;33.70;54.60;;;;;;4958117;28;22081;-51
2021/01/05 08:14:43;;;;;;;13.18;11.88;;;33.70;54.70;;;;;;4924784;29;20249;-52
2021/01/05 08:17:13;;;;;;;14.45;13.05;;;33.70;54.90;;;;;;4927086;29;20341;-50
2021/01/05 08:19:44;;;;;;;15.45;14.15;;;33.70;54.90;;;;;;4939759;28;20728;-56
2021/01/05 08:22:14;;;;;;;13.93;12.50;;;33.70;55.10;;;;;;4978054;28;20227;-56
2021/01/05 08:24:46;;;;;;;13.13;11.93;;;33.60;55.40;;;;;;4982828;28;20763;-60
2021/01/05 08:27:17;;;;;;;14.27;12.13;;;33.60;55.50;;;;;;4981310;28;20323;-52
2021/01/05 08:29:48;;;;;;;13.50;12.20;;;33.50;55.40;;;;;;4938468;28;20222;-51
2021/01/05 08:32:18;;;;;;;13.77;11.65;;;33.50;56.20;;;;;;4940006;28;20613;-50
2021/01/05 08:34:48;;;;;;;13.48;12.18;;;33.50;55.60;;;;;;4920166;29;20230;-53
2021/01/05 08:37:19;;;;;;;15.68;12.75;;;33.50;56.00;;;;;;4926599;28;20388;-52
2021/01/05 08:39:50;;;;;;;12.95;11.75;;;33.50;56.00;;;;;;4927126;29;20237;-50
2021/01/05 08:42:21;;;;;;;14.07;12.75;;;33.50;56.10;;;;;;4926126;28;20740;-50
2021/01/05 08:44:52;;;;;;;15.50;13.18;;;33.60;55.50;;;;;;4934136;28;20235;-53
2021/01/05 08:47:23;;;;;;;15.98;13.15;;;33.60;55.40;;;;;;4970628;28;20600;-50
2021/01/05 08:49:53;;;;;;;14.68;13.02;;;33.60;55.40;;;;;;4968706;28;20282;-49
2021/01/05 08:52:24;;;;;;;13.75;12.43;;;33.60;55.30;;;;;;4967318;28;20237;-52
2021/01/05 08:54:56;;;;;;;14.02;11.95;;;33.60;55.30;;;;;;4963821;28;20319;-49
2021/01/05 08:57:26;;;;;;;12.77;11.48;;;33.60;55.40;;;;;;4961454;28;20606;-50
2021/01/05 08:59:57;;;;;;;13.88;12.48;;;33.50;55.30;;;;;;4966258;28;20236;-52
2021/01/05 09:02:31;;;;;;;15.35;13.13;;;33.50;55.30;;;;;;4958127;28;20231;-54
2021/01/05 09:05:01;;;;;;;15.45;13.85;;;33.50;55.40;;;;;;4961618;28;20267;-49
2021/01/05 09:07:32;;;;;;;12.65;11.50;;;33.40;55.20;;;;;;4966822;28;20228;-50
2021/01/05 09:10:05;;;;;;;12.38;11.07;;;33.40;55.40;;;;;;4965567;28;20228;-51
2021/01/05 09:12:35;;;;;;;15.48;12.93;;;33.40;55.20;;;;;;4966472;28;20647;-52
2021/01/05 09:15:07;;;;;;;13.13;11.80;;;33.40;55.10;;;;;;4966434;28;20315;-53
2021/01/05 09:17:37;;;;;;;12.25;11.13;;;33.50;55.30;;;;;;4963031;28;20250;-54
2021/01/05 09:20:08;;;;;;;13.38;12.02;;;33.50;55.40;;;;;;4968465;28;20232;-54
2021/01/05 09:22:39;;;;;;;15.15;13.05;;;33.50;55.20;;;;;;4967379;28;20232;-52
2021/01/05 09:25:12;;;;;;;16.08;13.55;;;33.50;55.00;;;;;;4966541;28;20228;-55
2021/01/05 09:27:42;;;;;;;13.93;12.63;;;33.50;55.10;;;;;;4955172;28;20232;-51
2021/01/05 09:30:15;;;;;;;13.23;11.93;;;33.50;55.10;;;;;;4965036;28;20316;-50
2021/01/05 09:32:46;;;;;;;12.45;10.90;;;33.50;55.40;;;;;;4967215;28;20332;-54
2021/01/05 09:35:17;;;;;;;11.52;10.32;;;33.40;55.50;;;;;;4963094;28;20312;-54
2021/01/05 09:37:49;;;;;;;13.02;11.73;;;33.40;55.60;;;;;;4966443;28;20232;-50
2021/01/05 09:40:20;;;;;;;12.15;10.95;;;33.40;55.70;;;;;;4966974;28;20241;-54
2021/01/05 09:42:51;;;;;;;13.25;11.77;;;33.40;55.70;;;;;;4969284;28;20627;-55
2021/01/05 09:45:22;;;;;;;15.27;13.68;;;33.30;55.80;;;;;;4964547;28;20682;-52
2021/01/05 09:48:02;;;;;;;15.25;13.75;;;33.30;55.90;;;;;;4987711;28;20229;-51
2021/01/05 09:50:33;;;;;;;15.48;13.98;;;33.20;56.00;;;;;;4927248;29;20312;-52
2021/01/05 09:53:04;;;;;;;17.13;13.25;;;33.10;56.10;;;;;;4927603;28;20244;-55
2021/01/05 09:55:37;;;;;;;16.02;13.95;;;33.10;56.30;;;;;;4924281;29;20608;-54
2021/01/05 09:58:07;;;;;;;17.70;16.05;;;33.00;56.30;;;;;;4927437;29;20236;-53
2021/01/05 10:00:38;;;;;;;18.25;16.55;;;33.00;56.60;;;;;;4925619;28;20252;-49
2021/01/05 10:03:08;;;;;;;17.38;15.57;;;32.90;56.60;;;;;;4926028;28;20234;-50
2021/01/05 10:05:39;;;;;;;16.35;14.57;;;32.90;56.80;;;;;;4927813;29;20320;-50
2021/01/05 10:08:09;;;;;;;15.77;13.27;;;32.80;56.90;;;;;;4928373;28;20633;-54
2021/01/05 10:10:42;;;;;;;13.43;12.13;;;32.80;56.90;;;;;;4927577;28;20238;-52
2021/01/05 10:13:12;;;;;;;13.88;12.50;;;32.80;57.00;;;;;;4925060;28;20242;-50
2021/01/05 10:15:43;;;;;;;17.50;13.43;;;32.70;56.80;;;;;;4955595;28;20225;-52
2021/01/05 10:18:14;;;;;;;16.17;13.20;;;32.70;56.70;;;;;;4963344;28;20315;-53
2021/01/05 10:20:44;;;;;;;14.85;13.40;;;32.70;56.70;;;;;;4962382;28;20667;-52
2021/01/05 10:23:15;;;;;;;16.25;13.27;;;32.70;56.50;;;;;;4965321;28;20236;-49
2021/01/05 10:25:47;;;;;;;15.48;13.50;;;32.60;56.50;;;;;;4991854;28;20233;-51
2021/01/05 10:28:18;;;;;;;14.00;12.50;;;32.60;56.50;;;;;;4966446;28;20673;-52
2021/01/05 10:30:48;;;;;;;14.13;12.65;;;32.60;56.50;;;;;;4964606;28;20233;-51
2021/01/05 10:33:18;;;;;;;15.80;14.15;;;32.60;56.60;;;;;;4965702;28;20240;-51
2021/01/05 10:35:50;;;;;;;20.52;16.15;;;32.60;56.70;;;;;;4964420;28;20232;-49
2021/01/05 10:38:21;;;;;;;22.17;16.70;;;32.50;57.00;;;;;;4957407;28;20237;-52
2021/01/05 10:40:54;;;;;;;19.27;17.27;;;32.50;57.60;;;;;;4964509;28;20278;-54
2021/01/05 10:43:25;;;;;;;19.80;16.27;;;32.50;57.90;;;;;;4964054;28;20692;-51
2021/01/05 10:45:55;;;;;;;22.42;20.05;;;32.40;58.00;;;;;;4963225;28;20235;-52
2021/01/05 10:48:26;;;;;;;36.92;29.63;;;32.40;58.20;;;;;;4963995;28;20233;-53
2021/01/05 10:50:57;;;;;;;40.17;34.75;;;32.40;58.40;;;;;;4958884;28;20287;-48
2021/01/05 10:53:29;;;;;;;41.90;35.05;;;32.40;58.60;;;;;;4972072;28;20224;-50
2021/01/05 10:56:01;;;;;;;41.92;32.47;;;32.30;58.60;;;;;;4995835;28;20604;-53
2021/01/05 10:58:31;;;;;;;36.15;31.27;;;32.30;58.60;;;;;;4985815;28;20237;-52
2021/01/05 11:01:02;;;;;;;35.05;28.80;;;32.20;58.60;;;;;;5010934;28;20238;-51
2021/01/05 11:03:33;;;;;;;31.55;26.77;;;32.20;58.70;;;;;;4983666;28;20235;-49
2021/01/05 11:06:04;;;;;;;32.72;26.92;;;32.20;58.90;;;;;;4964434;28;20265;-49
2021/01/05 11:08:34;;;;;;;26.17;23.48;;;32.10;59.00;;;;;;4964822;28;20657;-49
2021/01/05 11:11:07;;;;;;;23.33;19.13;;;32.10;59.10;;;;;;4962056;28;20282;-48
2021/01/05 11:13:37;;;;;;;26.98;21.60;;;32.10;59.20;;;;;;4966013;28;20242;-49
2021/01/05 11:16:08;;;;;;;21.52;19.33;;;32.10;59.30;;;;;;4963010;28;20221;-51
2021/01/05 11:18:41;;;;;;;23.65;20.17;;;32.00;59.30;;;;;;4962661;28;20379;-49
2021/01/05 11:21:12;;;;;;;26.50;22.77;;;32.00;59.30;;;;;;4961644;28;20229;-48
2021/01/05 11:23:43;;;;;;;31.88;25.50;;;32.00;59.50;;;;;;4959285;28;20233;-50
2021/01/05 11:26:14;;;;;;;37.33;31.35;;;31.90;59.50;;;;;;4971577;28;20676;-50
2021/01/05 11:28:54;;;;;;;45.05;34.88;;;31.90;59.80;;;;;;4967274;28;20232;-53
2021/01/05 11:31:24;;;;;;;44.00;35.55;;;31.90;59.90;;;;;;4965871;28;20240;-51
2021/01/05 11:33:55;;;;;;;37.10;29.73;;;31.90;60.20;;;;;;4968686;28;20260;-54
2021/01/05 11:36:27;;;;;;;26.08;22.92;;;31.80;60.20;;;;;;4980015;28;20233;-53
2021/01/05 11:38:57;;;;;;;21.15;18.88;;;31.80;60.40;;;;;;4971923;28;20579;-48
2021/01/05 11:41:30;;;;;;;21.48;19.10;;;31.80;60.40;;;;;;4967714;28;20244;-48
2021/01/05 11:44:01;;;;;;;22.58;17.23;;;31.80;60.70;;;;;;4962756;28;20312;-53
2021/01/05 11:46:31;;;;;;;19.08;16.10;;;31.80;60.60;;;;;;4969747;28;20818;-52
2021/01/05 11:49:02;;;;;;;20.65;15.68;;;31.80;60.70;;;;;;4962343;28;20229;-54
2021/01/05 11:51:33;;;;;;;16.08;14.38;;;31.80;60.90;;;;;;4960861;28;20263;-50
2021/01/05 11:54:03;;;;;;;17.23;15.20;;;31.70;60.90;;;;;;4959779;28;20233;-49
2021/01/05 11:56:36;;;;;;;17.17;15.43;;;31.70;61.20;;;;;;4970499;28;20625;-51
2021/01/05 11:59:06;;;;;;;17.08;15.30;;;31.70;61.20;;;;;;4961812;28;20233;-50
2021/01/05 12:01:37;;;;;;;16.45;14.82;;;31.70;61.20;;;;;;4965711;28;20323;-48
2021/01/05 12:04:08;;;;;;;17.05;14.90;;;31.70;61.20;;;;;;4964385;28;20237;-54
2021/01/05 12:06:38;;;;;;;18.25;16.27;;;31.70;61.20;;;;;;4955772;28;20229;-50
2021/01/05 12:09:10;;;;;;;19.17;15.98;;;31.70;61.00;;;;;;4961588;28;20252;-49
2021/01/05 12:11:44;;;;;;;20.40;17.00;;;31.70;61.00;;;;;;4960714;28;20307;-48
2021/01/05 12:14:14;;;;;;;18.35;16.20;;;31.70;60.90;;;;;;4993364;28;20233;-48
2021/01/05 12:16:47;;;;;;;20.85;16.65;;;31.60;60.90;;;;;;4962557;28;20235;-49
2021/01/05 12:19:18;;;;;;;19.80;17.70;;;31.60;60.90;;;;;;4985418;28;20244;-50
2021/01/05 12:21:52;;;;;;;19.75;17.67;;;31.60;60.90;;;;;;4968461;28;20232;-50
2021/01/05 12:24:23;;;;;;;19.00;16.27;;;31.60;60.80;;;;;;4961703;28;20240;-53
2021/01/05 12:26:55;;;;;;;19.45;14.98;;;31.60;61.00;;;;;;4956446;28;20238;-48
2021/01/05 12:29:26;;;;;;;15.65;13.73;;;31.60;61.40;;;;;;4927536;29;20234;-50
2021/01/05 12:31:57;;;;;;;14.98;13.38;;;31.60;61.60;;;;;;4926432;28;20238;-51
2021/01/05 12:34:29;;;;;;;16.92;15.07;;;31.60;61.80;;;;;;4928060;28;20237;-51
2021/01/05 12:37:01;;;;;;;15.30;13.82;;;31.60;62.00;;;;;;4921125;29;20316;-50
2021/01/05 12:39:33;;;;;;;17.75;16.02;;;31.60;61.80;;;;;;4958478;28;20940;-48
2021/01/05 12:42:08;;;;;;;19.98;17.90;;;31.50;61.80;;;;;;4885445;28;20232;-48
2021/01/05 12:44:40;;;;;;;23.17;20.70;;;31.50;62.00;;;;;;4902317;28;20236;-49
2021/01/05 12:47:10;;;;;;;20.27;18.42;;;31.50;62.00;;;;;;4890458;28;20234;-49
2021/01/05 12:49:44;;;;;;;19.05;17.05;;;31.50;61.90;;;;;;4890363;28;20235;-51
2021/01/05 12:52:15;;;;;;;18.08;16.05;;;31.40;61.80;;;;;;4889548;28;20250;-54
2021/01/05 12:54:45;;;;;;;16.98;15.15;;;31.40;61.80;;;;;;4887547;28;20642;-54
2021/01/05 12:57:18;;;;;;;21.55;19.55;;;31.40;61.90;;;;;;4887037;28;20267;-51
2021/01/05 12:59:49;;;;;;;18.60;16.83;;;31.40;62.10;;;;;;4911689;28;20234;-50
2021/01/05 13:02:20;;;;;;;17.58;15.88;;;31.40;62.00;;;;;;4939645;28;20257;-49
2021/01/05 13:04:50;;;;;;;16.20;14.77;;;31.40;62.10;;;;;;4956375;28;20230;-53